sensor_id;sensor_type;location;lat;lon;timestamp;temperature;humidity
44565;DHT22;30275;51.822;-0.326;2023-03-22T00:01:29;10.50;99.90
44565;DHT22;30275;51.822;-0.326;2023-03-22T00:03:55;10.50;99.90
44565;DHT22;30275;51.822;-0.326;2023-03-22T00:06:21;10.50;99.90
44565;DHT22;30275;51.822;-0.326;2023-03-22T00:08:51;10.50;99.90
44565;DHT22;30275;51.822;-0.326;2023-03-22T00:11:18;10.50;99.90
44565;DHT22;30275;51.822;-0.326;2023-03-22T00:13:44;10.50;99.90
44565;DHT22;30275;51.822;-0.326;2023-03-22T00:16:12;10.50;99.90
44565;DHT22;30275;51.822;-0.326;2023-03-22T00:18:38;10.50;99.90
44565;DHT22;30275;51.822;-0.326;2023-03-22T00:21:04;10.50;99.90
44565;DHT22;30275;51.822;-0.326;2023-03-22T00:23:30;10.60;99.90
44565;DHT22;30275;51.822;-0.326;2023-03-22T00:25:56;10.50;99.90
44565;DHT22;30275;51.822;-0.326;2023-03-22T00:28:22;10.50;99.90
44565;DHT22;30275;51.822;-0.326;2023-03-22T00:30:56;10.60;99.90
44565;DHT22;30275;51.822;-0.326;2023-03-22T00:33:22;10.50;99.90
44565;DHT22;30275;51.822;-0.326;2023-03-22T00:35:58;10.50;99.90
44565;DHT22;30275;51.822;-0.326;2023-03-22T00:38:25;10.50;99.90
44565;DHT22;30275;51.822;-0.326;2023-03-22T00:41:04;10.50;99.90
44565;DHT22;30275;51.822;-0.326;2023-03-22T00:43:30;10.50;99.90
44565;DHT22;30275;51.822;-0.326;2023-03-22T00:45:55;10.60;99.90
44565;DHT22;30275;51.822;-0.326;2023-03-22T00:48:21;10.50;99.90
44565;DHT22;30275;51.822;-0.326;2023-03-22T00:50:47;10.50;99.90
44565;DHT22;30275;51.822;-0.326;2023-03-22T00:53:13;10.50;99.90
44565;DHT22;30275;51.822;-0.326;2023-03-22T00:55:38;10.50;99.90
44565;DHT22;30275;51.822;-0.326;2023-03-22T00:58:04;10.50;99.90
44565;DHT22;30275;51.822;-0.326;2023-03-22T01:00:30;10.50;99.90
44565;DHT22;30275;51.822;-0.326;2023-03-22T01:02:56;10.50;99.90
44565;DHT22;30275;51.822;-0.326;2023-03-22T01:05:24;10.40;99.90
44565;DHT22;30275;51.822;-0.326;2023-03-22T01:07:50;10.50;99.90
44565;DHT22;30275;51.822;-0.326;2023-03-22T01:10:17;10.40;99.90
44565;DHT22;30275;51.822;-0.326;2023-03-22T01:12:43;10.40;99.90
44565;DHT22;30275;51.822;-0.326;2023-03-22T01:15:09;10.40;99.90
44565;DHT22;30275;51.822;-0.326;2023-03-22T01:17:35;10.40;99.90
44565;DHT22;30275;51.822;-0.326;2023-03-22T01:20:00;10.40;99.90
44565;DHT22;30275;51.822;-0.326;2023-03-22T01:22:26;10.40;99.90
44565;DHT22;30275;51.822;-0.326;2023-03-22T01:24:54;10.40;99.90
44565;DHT22;30275;51.822;-0.326;2023-03-22T01:27:20;10.40;99.90
44565;DHT22;30275;51.822;-0.326;2023-03-22T01:29:45;10.40;99.90
44565;DHT22;30275;51.822;-0.326;2023-03-22T01:32:11;10.40;99.90
44565;DHT22;30275;51.822;-0.326;2023-03-22T01:34:37;10.40;99.90
44565;DHT22;30275;51.822;-0.326;2023-03-22T01:37:02;10.30;99.90
44565;DHT22;30275;51.822;-0.326;2023-03-22T01:39:28;10.30;99.90
44565;DHT22;30275;51.822;-0.326;2023-03-22T01:41:53;10.30;99.90
44565;DHT22;30275;51.822;-0.326;2023-03-22T01:44:20;10.30;99.90
44565;DHT22;30275;51.822;-0.326;2023-03-22T01:46:48;10.20;99.90
44565;DHT22;30275;51.822;-0.326;2023-03-22T01:49:28;10.20;99.90
44565;DHT22;30275;51.822;-0.326;2023-03-22T01:52:00;10.20;99.90
44565;DHT22;30275;51.822;-0.326;2023-03-22T01:54:34;10.30;99.90
44565;DHT22;30275;51.822;-0.326;2023-03-22T01:57:02;10.30;99.90
44565;DHT22;30275;51.822;-0.326;2023-03-22T01:59:29;10.30;99.90
44565;DHT22;30275;51.822;-0.326;2023-03-22T02:01:55;10.30;99.90
44565;DHT22;30275;51.822;-0.326;2023-03-22T02:04:26;10.30;99.90
44565;DHT22;30275;51.822;-0.326;2023-03-22T02:07:04;10.40;99.90
44565;DHT22;30275;51.822;-0.326;2023-03-22T02:09:37;10.40;99.90
44565;DHT22;30275;51.822;-0.326;2023-03-22T02:12:13;10.40;99.90
44565;DHT22;30275;51.822;-0.326;2023-03-22T02:14:57;10.40;99.90
44565;DHT22;30275;51.822;-0.326;2023-03-22T02:24:00;10.30;99.90
44565;DHT22;30275;51.822;-0.326;2023-03-22T02:35:08;10.30;99.90
44565;DHT22;30275;51.822;-0.326;2023-03-22T02:40:51;10.30;99.90
44565;DHT22;30275;51.822;-0.326;2023-03-22T02:46:07;10.30;99.90
44565;DHT22;30275;51.822;-0.326;2023-03-22T02:48:44;10.30;99.90
44565;DHT22;30275;51.822;-0.326;2023-03-22T02:51:22;10.30;99.90
44565;DHT22;30275;51.822;-0.326;2023-03-22T02:53:57;10.40;99.90
44565;DHT22;30275;51.822;-0.326;2023-03-22T02:56:33;10.40;99.90
44565;DHT22;30275;51.822;-0.326;2023-03-22T02:59:04;10.40;99.90
44565;DHT22;30275;51.822;-0.326;2023-03-22T03:01:54;10.40;99.90
44565;DHT22;30275;51.822;-0.326;2023-03-22T03:04:24;10.40;99.90
44565;DHT22;30275;51.822;-0.326;2023-03-22T03:06:54;10.40;99.90
44565;DHT22;30275;51.822;-0.326;2023-03-22T03:09:20;10.30;99.90
44565;DHT22;30275;51.822;-0.326;2023-03-22T03:11:49;10.30;99.90
44565;DHT22;30275;51.822;-0.326;2023-03-22T03:14:23;10.20;99.90
44565;DHT22;30275;51.822;-0.326;2023-03-22T03:19:38;10.10;99.90
44565;DHT22;30275;51.822;-0.326;2023-03-22T03:25:50;10.00;99.90
44565;DHT22;30275;51.822;-0.326;2023-03-22T03:28:56;10.10;99.90
44565;DHT22;30275;51.822;-0.326;2023-03-22T03:34:15;10.00;99.90
44565;DHT22;30275;51.822;-0.326;2023-03-22T03:36:48;9.90;99.90
44565;DHT22;30275;51.822;-0.326;2023-03-22T03:39:17;9.90;99.90
44565;DHT22;30275;51.822;-0.326;2023-03-22T03:41:45;9.90;99.90
44565;DHT22;30275;51.822;-0.326;2023-03-22T03:44:13;9.90;99.90
44565;DHT22;30275;51.822;-0.326;2023-03-22T03:46:39;10.00;99.90
44565;DHT22;30275;51.822;-0.326;2023-03-22T03:49:07;10.00;99.90
44565;DHT22;30275;51.822;-0.326;2023-03-22T03:51:47;10.00;99.90
44565;DHT22;30275;51.822;-0.326;2023-03-22T03:54:13;10.00;99.90
44565;DHT22;30275;51.822;-0.326;2023-03-22T03:56:39;10.00;99.90
44565;DHT22;30275;51.822;-0.326;2023-03-22T03:59:04;10.00;99.90
44565;DHT22;30275;51.822;-0.326;2023-03-22T04:01:31;10.00;99.90
44565;DHT22;30275;51.822;-0.326;2023-03-22T04:03:57;10.00;99.90
44565;DHT22;30275;51.822;-0.326;2023-03-22T04:06:22;10.00;99.90
44565;DHT22;30275;51.822;-0.326;2023-03-22T04:08:48;10.00;99.90
44565;DHT22;30275;51.822;-0.326;2023-03-22T04:11:18;10.00;99.90
44565;DHT22;30275;51.822;-0.326;2023-03-22T04:13:44;9.90;99.90
44565;DHT22;30275;51.822;-0.326;2023-03-22T04:16:10;9.90;99.90
44565;DHT22;30275;51.822;-0.326;2023-03-22T04:18:36;9.90;99.90
44565;DHT22;30275;51.822;-0.326;2023-03-22T04:21:02;9.90;99.90
44565;DHT22;30275;51.822;-0.326;2023-03-22T04:23:28;9.90;99.90
44565;DHT22;30275;51.822;-0.326;2023-03-22T04:25:53;9.80;99.90
44565;DHT22;30275;51.822;-0.326;2023-03-22T04:28:24;9.80;99.90
44565;DHT22;30275;51.822;-0.326;2023-03-22T04:30:51;9.80;99.90
44565;DHT22;30275;51.822;-0.326;2023-03-22T04:33:18;9.80;99.90
44565;DHT22;30275;51.822;-0.326;2023-03-22T04:35:44;9.80;99.90
44565;DHT22;30275;51.822;-0.326;2023-03-22T04:38:12;9.70;99.90
44565;DHT22;30275;51.822;-0.326;2023-03-22T04:40:39;9.80;99.90
44565;DHT22;30275;51.822;-0.326;2023-03-22T04:43:10;9.80;99.90
44565;DHT22;30275;51.822;-0.326;2023-03-22T04:45:36;9.80;99.90
44565;DHT22;30275;51.822;-0.326;2023-03-22T04:48:03;9.80;99.90
44565;DHT22;30275;51.822;-0.326;2023-03-22T04:50:32;9.80;99.90
44565;DHT22;30275;51.822;-0.326;2023-03-22T04:52:57;9.80;99.90
44565;DHT22;30275;51.822;-0.326;2023-03-22T04:55:23;9.80;99.90
44565;DHT22;30275;51.822;-0.326;2023-03-22T04:57:48;9.80;99.90
44565;DHT22;30275;51.822;-0.326;2023-03-22T05:00:14;9.80;99.90
44565;DHT22;30275;51.822;-0.326;2023-03-22T05:02:41;9.80;99.90
44565;DHT22;30275;51.822;-0.326;2023-03-22T05:05:07;9.80;99.90
44565;DHT22;30275;51.822;-0.326;2023-03-22T05:07:32;9.80;99.90
44565;DHT22;30275;51.822;-0.326;2023-03-22T05:09:58;9.80;99.90
44565;DHT22;30275;51.822;-0.326;2023-03-22T05:12:23;9.80;99.90
44565;DHT22;30275;51.822;-0.326;2023-03-22T05:14:50;9.80;99.90
44565;DHT22;30275;51.822;-0.326;2023-03-22T05:17:15;9.80;99.90
44565;DHT22;30275;51.822;-0.326;2023-03-22T05:19:41;9.80;99.90
44565;DHT22;30275;51.822;-0.326;2023-03-22T05:22:06;9.80;99.90
44565;DHT22;30275;51.822;-0.326;2023-03-22T05:24:32;9.80;99.90
44565;DHT22;30275;51.822;-0.326;2023-03-22T05:26:58;9.70;99.90
44565;DHT22;30275;51.822;-0.326;2023-03-22T05:29:26;9.80;99.90
44565;DHT22;30275;51.822;-0.326;2023-03-22T05:31:52;9.80;99.90
44565;DHT22;30275;51.822;-0.326;2023-03-22T05:34:18;9.70;99.90
44565;DHT22;30275;51.822;-0.326;2023-03-22T05:36:44;9.70;99.90
44565;DHT22;30275;51.822;-0.326;2023-03-22T05:39:10;9.70;99.90
44565;DHT22;30275;51.822;-0.326;2023-03-22T05:41:36;9.80;99.90
44565;DHT22;30275;51.822;-0.326;2023-03-22T05:44:02;9.80;99.90
44565;DHT22;30275;51.822;-0.326;2023-03-22T05:46:28;9.80;99.90
44565;DHT22;30275;51.822;-0.326;2023-03-22T05:48:54;9.80;99.90
44565;DHT22;30275;51.822;-0.326;2023-03-22T05:51:19;9.80;99.90
44565;DHT22;30275;51.822;-0.326;2023-03-22T05:53:46;9.80;99.90
44565;DHT22;30275;51.822;-0.326;2023-03-22T05:56:13;9.80;99.90
44565;DHT22;30275;51.822;-0.326;2023-03-22T05:58:38;9.80;99.90
44565;DHT22;30275;51.822;-0.326;2023-03-22T06:01:12;9.80;99.90
44565;DHT22;30275;51.822;-0.326;2023-03-22T06:03:38;9.90;99.90
44565;DHT22;30275;51.822;-0.326;2023-03-22T06:06:05;9.80;99.90
44565;DHT22;30275;51.822;-0.326;2023-03-22T06:08:32;9.80;99.90
44565;DHT22;30275;51.822;-0.326;2023-03-22T06:10:58;9.90;99.90
44565;DHT22;30275;51.822;-0.326;2023-03-22T06:13:24;9.90;99.90
44565;DHT22;30275;51.822;-0.326;2023-03-22T06:15:50;9.90;99.90
44565;DHT22;30275;51.822;-0.326;2023-03-22T06:18:16;9.90;99.90
44565;DHT22;30275;51.822;-0.326;2023-03-22T06:20:41;9.90;99.90
44565;DHT22;30275;51.822;-0.326;2023-03-22T06:23:07;9.90;99.90
44565;DHT22;30275;51.822;-0.326;2023-03-22T06:25:33;10.00;99.90
44565;DHT22;30275;51.822;-0.326;2023-03-22T06:27:58;10.00;99.90
44565;DHT22;30275;51.822;-0.326;2023-03-22T06:30:24;10.00;99.90
44565;DHT22;30275;51.822;-0.326;2023-03-22T06:32:50;10.00;99.90
44565;DHT22;30275;51.822;-0.326;2023-03-22T06:35:15;10.00;99.90
44565;DHT22;30275;51.822;-0.326;2023-03-22T06:37:41;10.00;99.90
44565;DHT22;30275;51.822;-0.326;2023-03-22T06:40:08;10.10;99.90
44565;DHT22;30275;51.822;-0.326;2023-03-22T06:42:34;10.10;99.90
44565;DHT22;30275;51.822;-0.326;2023-03-22T06:44:59;10.10;99.90
44565;DHT22;30275;51.822;-0.326;2023-03-22T06:47:26;10.10;99.90
44565;DHT22;30275;51.822;-0.326;2023-03-22T06:49:52;10.20;99.90
44565;DHT22;30275;51.822;-0.326;2023-03-22T06:52:18;10.20;99.90
44565;DHT22;30275;51.822;-0.326;2023-03-22T06:54:44;10.20;99.90
44565;DHT22;30275;51.822;-0.326;2023-03-22T06:57:10;10.20;99.90
44565;DHT22;30275;51.822;-0.326;2023-03-22T06:59:36;10.20;99.90
44565;DHT22;30275;51.822;-0.326;2023-03-22T07:02:01;10.20;99.90
44565;DHT22;30275;51.822;-0.326;2023-03-22T07:04:27;10.30;99.90
44565;DHT22;30275;51.822;-0.326;2023-03-22T07:06:53;10.30;99.90
44565;DHT22;30275;51.822;-0.326;2023-03-22T07:09:19;10.30;99.90
44565;DHT22;30275;51.822;-0.326;2023-03-22T07:11:44;10.40;99.90
44565;DHT22;30275;51.822;-0.326;2023-03-22T07:14:10;10.40;99.90
44565;DHT22;30275;51.822;-0.326;2023-03-22T07:16:35;10.40;99.90
44565;DHT22;30275;51.822;-0.326;2023-03-22T07:19:02;10.40;99.90
44565;DHT22;30275;51.822;-0.326;2023-03-22T07:21:28;10.40;99.90
44565;DHT22;30275;51.822;-0.326;2023-03-22T07:23:53;10.40;99.90
44565;DHT22;30275;51.822;-0.326;2023-03-22T07:26:19;10.50;99.90
44565;DHT22;30275;51.822;-0.326;2023-03-22T07:28:45;10.50;99.90
44565;DHT22;30275;51.822;-0.326;2023-03-22T07:31:11;10.50;99.90
44565;DHT22;30275;51.822;-0.326;2023-03-22T07:33:38;10.50;99.90
44565;DHT22;30275;51.822;-0.326;2023-03-22T07:36:04;10.50;99.90
44565;DHT22;30275;51.822;-0.326;2023-03-22T07:38:30;10.50;99.90
44565;DHT22;30275;51.822;-0.326;2023-03-22T07:40:56;10.50;99.90
44565;DHT22;30275;51.822;-0.326;2023-03-22T07:43:22;10.50;99.90
44565;DHT22;30275;51.822;-0.326;2023-03-22T07:45:49;10.60;99.90
44565;DHT22;30275;51.822;-0.326;2023-03-22T07:48:15;10.60;99.90
44565;DHT22;30275;51.822;-0.326;2023-03-22T07:50:40;10.60;99.90
44565;DHT22;30275;51.822;-0.326;2023-03-22T07:53:07;10.70;99.90
44565;DHT22;30275;51.822;-0.326;2023-03-22T07:55:34;10.70;99.90
44565;DHT22;30275;51.822;-0.326;2023-03-22T07:57:59;10.70;99.90
44565;DHT22;30275;51.822;-0.326;2023-03-22T08:00:25;10.70;99.90
44565;DHT22;30275;51.822;-0.326;2023-03-22T08:02:51;10.60;99.90
44565;DHT22;30275;51.822;-0.326;2023-03-22T08:05:17;10.50;99.90
44565;DHT22;30275;51.822;-0.326;2023-03-22T08:07:43;10.40;99.90
44565;DHT22;30275;51.822;-0.326;2023-03-22T08:10:09;10.40;99.90
44565;DHT22;30275;51.822;-0.326;2023-03-22T08:12:35;10.40;99.90
44565;DHT22;30275;51.822;-0.326;2023-03-22T08:15:00;10.40;99.90
44565;DHT22;30275;51.822;-0.326;2023-03-22T08:17:27;10.40;99.90
44565;DHT22;30275;51.822;-0.326;2023-03-22T08:19:54;10.50;99.90
44565;DHT22;30275;51.822;-0.326;2023-03-22T08:22:20;10.50;99.90
44565;DHT22;30275;51.822;-0.326;2023-03-22T08:24:53;10.50;99.90
44565;DHT22;30275;51.822;-0.326;2023-03-22T08:27:18;10.50;99.90
44565;DHT22;30275;51.822;-0.326;2023-03-22T08:29:45;10.50;99.90
44565;DHT22;30275;51.822;-0.326;2023-03-22T08:32:12;10.50;99.90
44565;DHT22;30275;51.822;-0.326;2023-03-22T08:34:39;10.60;99.90
44565;DHT22;30275;51.822;-0.326;2023-03-22T08:37:05;10.60;99.90
44565;DHT22;30275;51.822;-0.326;2023-03-22T08:39:31;10.60;99.90
44565;DHT22;30275;51.822;-0.326;2023-03-22T08:41:57;10.70;99.90
44565;DHT22;30275;51.822;-0.326;2023-03-22T08:44:23;10.80;99.90
44565;DHT22;30275;51.822;-0.326;2023-03-22T08:46:48;10.90;99.90
44565;DHT22;30275;51.822;-0.326;2023-03-22T08:49:14;10.90;99.90
44565;DHT22;30275;51.822;-0.326;2023-03-22T08:51:41;11.00;99.90
44565;DHT22;30275;51.822;-0.326;2023-03-22T08:54:06;11.00;99.90
44565;DHT22;30275;51.822;-0.326;2023-03-22T08:56:32;11.10;99.90
44565;DHT22;30275;51.822;-0.326;2023-03-22T08:59:05;11.20;99.90
44565;DHT22;30275;51.822;-0.326;2023-03-22T09:01:31;11.40;99.90
44565;DHT22;30275;51.822;-0.326;2023-03-22T09:03:56;11.30;99.90
44565;DHT22;30275;51.822;-0.326;2023-03-22T09:06:23;11.30;99.90
44565;DHT22;30275;51.822;-0.326;2023-03-22T09:08:50;11.40;99.90
44565;DHT22;30275;51.822;-0.326;2023-03-22T09:11:17;11.40;99.90
44565;DHT22;30275;51.822;-0.326;2023-03-22T09:13:43;11.30;99.90
44565;DHT22;30275;51.822;-0.326;2023-03-22T09:16:09;11.30;99.90
44565;DHT22;30275;51.822;-0.326;2023-03-22T09:18:36;11.30;99.90
44565;DHT22;30275;51.822;-0.326;2023-03-22T09:21:01;11.40;99.90
44565;DHT22;30275;51.822;-0.326;2023-03-22T09:23:27;11.50;99.90
44565;DHT22;30275;51.822;-0.326;2023-03-22T09:25:54;11.50;99.90
44565;DHT22;30275;51.822;-0.326;2023-03-22T09:28:20;11.60;99.90
44565;DHT22;30275;51.822;-0.326;2023-03-22T09:30:46;11.90;99.90
44565;DHT22;30275;51.822;-0.326;2023-03-22T09:33:11;12.10;99.90
44565;DHT22;30275;51.822;-0.326;2023-03-22T09:35:41;11.90;99.90
44565;DHT22;30275;51.822;-0.326;2023-03-22T09:38:07;12.00;99.90
44565;DHT22;30275;51.822;-0.326;2023-03-22T09:40:34;12.00;99.90
44565;DHT22;30275;51.822;-0.326;2023-03-22T09:43:04;12.10;99.90
44565;DHT22;30275;51.822;-0.326;2023-03-22T09:45:38;12.00;99.90
44565;DHT22;30275;51.822;-0.326;2023-03-22T09:50:52;12.00;99.90
44565;DHT22;30275;51.822;-0.326;2023-03-22T09:53:20;11.90;99.90
44565;DHT22;30275;51.822;-0.326;2023-03-22T09:58:28;11.90;99.90
44565;DHT22;30275;51.822;-0.326;2023-03-22T10:06:21;11.50;99.90
44565;DHT22;30275;51.822;-0.326;2023-03-22T10:16:56;17.10;99.90
44565;DHT22;30275;51.822;-0.326;2023-03-22T10:22:23;18.80;99.90
44565;DHT22;30275;51.822;-0.326;2023-03-22T10:24:52;18.80;99.90
44565;DHT22;30275;51.822;-0.326;2023-03-22T10:27:20;18.60;99.90
44565;DHT22;30275;51.822;-0.326;2023-03-22T10:29:51;18.50;99.90
44565;DHT22;30275;51.822;-0.326;2023-03-22T10:34:58;19.00;99.90
44565;DHT22;30275;51.822;-0.326;2023-03-22T10:37:32;18.90;99.90
44565;DHT22;30275;51.822;-0.326;2023-03-22T10:40:01;18.20;99.90
44565;DHT22;30275;51.822;-0.326;2023-03-22T10:42:35;18.50;99.90
44565;DHT22;30275;51.822;-0.326;2023-03-22T10:45:27;19.00;99.90
44565;DHT22;30275;51.822;-0.326;2023-03-22T10:48:03;18.90;99.90
44565;DHT22;30275;51.822;-0.326;2023-03-22T10:50:33;19.10;99.90
44565;DHT22;30275;51.822;-0.326;2023-03-22T10:55:26;18.10;99.90
44565;DHT22;30275;51.822;-0.326;2023-03-22T11:00:50;19.90;99.90
44565;DHT22;30275;51.822;-0.326;2023-03-22T11:06:00;18.70;99.90
44565;DHT22;30275;51.822;-0.326;2023-03-22T11:08:26;18.30;99.90
44565;DHT22;30275;51.822;-0.326;2023-03-22T11:10:52;18.80;99.90
44565;DHT22;30275;51.822;-0.326;2023-03-22T11:13:19;18.20;99.90
44565;DHT22;30275;51.822;-0.326;2023-03-22T11:16:13;18.40;99.90
44565;DHT22;30275;51.822;-0.326;2023-03-22T11:18:41;17.70;99.90
44565;DHT22;30275;51.822;-0.326;2023-03-22T11:21:09;18.30;99.90
44565;DHT22;30275;51.822;-0.326;2023-03-22T11:23:37;18.10;99.90
44565;DHT22;30275;51.822;-0.326;2023-03-22T11:26:10;18.30;99.90
44565;DHT22;30275;51.822;-0.326;2023-03-22T11:28:53;19.20;99.90
44565;DHT22;30275;51.822;-0.326;2023-03-22T11:31:26;20.00;99.90
44565;DHT22;30275;51.822;-0.326;2023-03-22T11:34:16;19.00;99.90
44565;DHT22;30275;51.822;-0.326;2023-03-22T11:36:46;18.60;99.90
44565;DHT22;30275;51.822;-0.326;2023-03-22T11:39:19;18.70;99.90
44565;DHT22;30275;51.822;-0.326;2023-03-22T11:41:46;18.80;99.90
44565;DHT22;30275;51.822;-0.326;2023-03-22T11:44:15;19.80;99.90
44565;DHT22;30275;51.822;-0.326;2023-03-22T11:46:57;20.00;99.50
44565;DHT22;30275;51.822;-0.326;2023-03-22T11:49:31;20.00;99.90
44565;DHT22;30275;51.822;-0.326;2023-03-22T11:52:07;19.40;99.90
44565;DHT22;30275;51.822;-0.326;2023-03-22T11:54:34;18.70;99.20
44565;DHT22;30275;51.822;-0.326;2023-03-22T11:57:08;17.40;99.90
44565;DHT22;30275;51.822;-0.326;2023-03-22T12:00:02;16.40;99.90
44565;DHT22;30275;51.822;-0.326;2023-03-22T12:03:03;17.70;99.90
44565;DHT22;30275;51.822;-0.326;2023-03-22T12:05:36;18.20;99.90
44565;DHT22;30275;51.822;-0.326;2023-03-22T12:08:10;18.30;99.90
44565;DHT22;30275;51.822;-0.326;2023-03-22T12:10:40;18.60;99.90
44565;DHT22;30275;51.822;-0.326;2023-03-22T12:13:18;18.00;99.70
44565;DHT22;30275;51.822;-0.326;2023-03-22T12:15:53;18.30;99.90
44565;DHT22;30275;51.822;-0.326;2023-03-22T12:20:56;18.00;99.90
44565;DHT22;30275;51.822;-0.326;2023-03-22T12:23:32;18.10;99.90
44565;DHT22;30275;51.822;-0.326;2023-03-22T12:26:23;17.70;99.90
44565;DHT22;30275;51.822;-0.326;2023-03-22T12:31:38;16.70;99.90
44565;DHT22;30275;51.822;-0.326;2023-03-22T12:34:08;17.80;99.90
44565;DHT22;30275;51.822;-0.326;2023-03-22T12:37:16;17.60;99.90
44565;DHT22;30275;51.822;-0.326;2023-03-22T12:42:41;17.00;99.90
44565;DHT22;30275;51.822;-0.326;2023-03-22T12:45:20;16.30;99.90
44565;DHT22;30275;51.822;-0.326;2023-03-22T12:48:00;16.50;99.90
44565;DHT22;30275;51.822;-0.326;2023-03-22T12:50:50;16.50;99.90
44565;DHT22;30275;51.822;-0.326;2023-03-22T12:53:18;16.10;99.90
44565;DHT22;30275;51.822;-0.326;2023-03-22T12:55:45;16.30;99.90
44565;DHT22;30275;51.822;-0.326;2023-03-22T12:58:21;16.00;99.90
44565;DHT22;30275;51.822;-0.326;2023-03-22T13:00:52;15.60;99.90
44565;DHT22;30275;51.822;-0.326;2023-03-22T13:03:27;15.60;99.90
44565;DHT22;30275;51.822;-0.326;2023-03-22T13:06:06;15.80;99.90
44565;DHT22;30275;51.822;-0.326;2023-03-22T13:09:14;15.80;99.90
44565;DHT22;30275;51.822;-0.326;2023-03-22T13:11:46;15.80;99.90
44565;DHT22;30275;51.822;-0.326;2023-03-22T13:24:59;15.10;99.90
44565;DHT22;30275;51.822;-0.326;2023-03-22T13:27:39;15.00;99.90
44565;DHT22;30275;51.822;-0.326;2023-03-22T13:32:47;14.80;99.90
44565;DHT22;30275;51.822;-0.326;2023-03-22T13:35:51;14.80;99.90
44565;DHT22;30275;51.822;-0.326;2023-03-22T13:38:39;14.80;99.90
44565;DHT22;30275;51.822;-0.326;2023-03-22T13:41:27;14.80;99.90
44565;DHT22;30275;51.822;-0.326;2023-03-22T13:43:59;14.70;99.90
44565;DHT22;30275;51.822;-0.326;2023-03-22T13:49:11;14.80;99.90
44565;DHT22;30275;51.822;-0.326;2023-03-22T13:51:41;14.90;99.90
44565;DHT22;30275;51.822;-0.326;2023-03-22T13:59:16;14.60;99.90
44565;DHT22;30275;51.822;-0.326;2023-03-22T14:07:20;14.40;99.90
44565;DHT22;30275;51.822;-0.326;2023-03-22T14:15:10;14.90;99.90
44565;DHT22;30275;51.822;-0.326;2023-03-22T14:17:41;15.10;99.90
44565;DHT22;30275;51.822;-0.326;2023-03-22T14:20:13;15.20;99.90
44565;DHT22;30275;51.822;-0.326;2023-03-22T14:22:45;15.30;99.90
44565;DHT22;30275;51.822;-0.326;2023-03-22T14:25:17;15.70;99.90
44565;DHT22;30275;51.822;-0.326;2023-03-22T14:27:43;15.90;99.90
44565;DHT22;30275;51.822;-0.326;2023-03-22T14:30:42;15.60;99.90
44565;DHT22;30275;51.822;-0.326;2023-03-22T14:33:17;15.30;99.90
44565;DHT22;30275;51.822;-0.326;2023-03-22T14:35:54;15.20;99.90
44565;DHT22;30275;51.822;-0.326;2023-03-22T14:38:25;15.00;99.90
44565;DHT22;30275;51.822;-0.326;2023-03-22T14:41:07;15.00;99.90
44565;DHT22;30275;51.822;-0.326;2023-03-22T14:43:33;14.90;99.90
44565;DHT22;30275;51.822;-0.326;2023-03-22T14:48:46;14.80;99.90
44565;DHT22;30275;51.822;-0.326;2023-03-22T14:51:16;14.60;99.90
44565;DHT22;30275;51.822;-0.326;2023-03-22T14:53:44;14.50;99.90
44565;DHT22;30275;51.822;-0.326;2023-03-22T14:56:22;14.40;99.90
44565;DHT22;30275;51.822;-0.326;2023-03-22T14:58:52;14.30;99.90
44565;DHT22;30275;51.822;-0.326;2023-03-22T15:01:23;14.30;99.90
44565;DHT22;30275;51.822;-0.326;2023-03-22T15:03:54;14.30;99.90
44565;DHT22;30275;51.822;-0.326;2023-03-22T15:06:22;14.20;99.90
44565;DHT22;30275;51.822;-0.326;2023-03-22T15:08:48;14.20;99.90
44565;DHT22;30275;51.822;-0.326;2023-03-22T15:11:14;14.20;99.90
44565;DHT22;30275;51.822;-0.326;2023-03-22T15:13:43;14.20;99.90
44565;DHT22;30275;51.822;-0.326;2023-03-22T15:16:19;14.10;99.90
44565;DHT22;30275;51.822;-0.326;2023-03-22T15:18:46;14.00;99.90
44565;DHT22;30275;51.822;-0.326;2023-03-22T15:21:13;14.10;99.90
44565;DHT22;30275;51.822;-0.326;2023-03-22T15:23:55;14.30;99.90
44565;DHT22;30275;51.822;-0.326;2023-03-22T15:26:25;14.20;99.90
44565;DHT22;30275;51.822;-0.326;2023-03-22T15:31:28;14.00;99.90
44565;DHT22;30275;51.822;-0.326;2023-03-22T15:34:02;13.90;99.90
44565;DHT22;30275;51.822;-0.326;2023-03-22T15:36:32;13.80;99.90
44565;DHT22;30275;51.822;-0.326;2023-03-22T15:39:01;13.80;99.90
44565;DHT22;30275;51.822;-0.326;2023-03-22T15:41:34;13.90;99.90
44565;DHT22;30275;51.822;-0.326;2023-03-22T15:44:14;13.80;99.90
44565;DHT22;30275;51.822;-0.326;2023-03-22T15:52:27;13.70;99.90
44565;DHT22;30275;51.822;-0.326;2023-03-22T15:55:03;13.80;99.90
44565;DHT22;30275;51.822;-0.326;2023-03-22T16:00:18;13.70;99.90
44565;DHT22;30275;51.822;-0.326;2023-03-22T16:05:42;13.60;99.90
44565;DHT22;30275;51.822;-0.326;2023-03-22T16:08:10;13.60;99.90
44565;DHT22;30275;51.822;-0.326;2023-03-22T16:10:37;13.60;99.90
44565;DHT22;30275;51.822;-0.326;2023-03-22T16:13:18;13.60;99.90
44565;DHT22;30275;51.822;-0.326;2023-03-22T16:15:44;13.50;99.90
44565;DHT22;30275;51.822;-0.326;2023-03-22T16:18:15;13.50;99.90
44565;DHT22;30275;51.822;-0.326;2023-03-22T16:20:42;13.40;99.90
44565;DHT22;30275;51.822;-0.326;2023-03-22T16:23:14;13.50;99.90
44565;DHT22;30275;51.822;-0.326;2023-03-22T16:25:40;13.50;99.90
44565;DHT22;30275;51.822;-0.326;2023-03-22T16:28:07;13.50;99.90
44565;DHT22;30275;51.822;-0.326;2023-03-22T16:30:33;13.30;99.90
44565;DHT22;30275;51.822;-0.326;2023-03-22T16:32:59;13.40;99.90
44565;DHT22;30275;51.822;-0.326;2023-03-22T16:35:26;13.30;99.90
44565;DHT22;30275;51.822;-0.326;2023-03-22T16:37:52;13.30;99.90
44565;DHT22;30275;51.822;-0.326;2023-03-22T16:40:22;13.30;99.90
44565;DHT22;30275;51.822;-0.326;2023-03-22T16:42:50;13.30;99.90
44565;DHT22;30275;51.822;-0.326;2023-03-22T16:47:47;13.20;99.90
44565;DHT22;30275;51.822;-0.326;2023-03-22T16:50:12;13.10;99.90
44565;DHT22;30275;51.822;-0.326;2023-03-22T16:52:38;13.00;99.90
44565;DHT22;30275;51.822;-0.326;2023-03-22T16:55:04;12.90;99.90
44565;DHT22;30275;51.822;-0.326;2023-03-22T16:57:35;13.00;99.90
44565;DHT22;30275;51.822;-0.326;2023-03-22T17:00:01;13.10;99.90
44565;DHT22;30275;51.822;-0.326;2023-03-22T17:02:34;13.00;99.90
44565;DHT22;30275;51.822;-0.326;2023-03-22T17:05:01;13.10;99.90
44565;DHT22;30275;51.822;-0.326;2023-03-22T17:07:29;13.00;99.90
44565;DHT22;30275;51.822;-0.326;2023-03-22T17:09:55;13.10;99.90
44565;DHT22;30275;51.822;-0.326;2023-03-22T17:12:26;13.10;99.90
44565;DHT22;30275;51.822;-0.326;2023-03-22T17:14:54;13.00;99.90
44565;DHT22;30275;51.822;-0.326;2023-03-22T17:17:20;13.00;99.90
44565;DHT22;30275;51.822;-0.326;2023-03-22T17:19:47;13.00;99.90
44565;DHT22;30275;51.822;-0.326;2023-03-22T17:22:14;13.00;99.90
44565;DHT22;30275;51.822;-0.326;2023-03-22T17:24:41;12.90;99.90
44565;DHT22;30275;51.822;-0.326;2023-03-22T17:27:09;12.90;99.90
44565;DHT22;30275;51.822;-0.326;2023-03-22T17:29:36;12.90;99.90
44565;DHT22;30275;51.822;-0.326;2023-03-22T17:32:05;12.70;99.90
44565;DHT22;30275;51.822;-0.326;2023-03-22T17:34:31;12.70;99.90